North Newton, KS

10:16 AM CST on February 27, 2017 (GMT -0600)
Newton City County

Weather History for KEWK - May, 2013

Change the Weather History Date:

Saturday, May 4, 2013

  Actual Average Record
Temperature  
Mean Temperature 42 °F -  
Max Temperature 44 °F 69 °F 98 °F (2014)
Min Temperature 39 °F 49 °F 39 °F (2005)
Degree Days  
Heating Degree Days 24    
Moisture  
Dew Point 32 °F    
Average Humidity 70    
Maximum Humidity 81    
Minimum Humidity 53    
Precipitation  
Precipitation 0.00 in - - ()
Sea Level Pressure  
Sea Level Pressure 30.00 in    
Wind  
Wind Speed 16 mph (NNW)    
Max Wind Speed 29 mph    
Max Gust Speed 36 mph    
Visibility 10 miles    
Events      
Averages and records for this station are not official NWS values.
T = Trace of Precipitation, MM = Missing Value Source: NWS Daily Summary

Daily Weather History Graph

Daily Weather History Graph

Search for Another Location

Airport or City:

Trip Planner

Search our weather history database for the weather conditions in past years. The results will help you decide how hot, cold, wet, or windy it might be!

Date:

Astronomy

May. 04, 2013 Rise Set
Actual Time 6:29 AM CDT 8:23 PM CDT
Civil Twilight 6:00 AM CDT 8:51 PM CDT
Nautical Twilight 5:25 AM CDT 9:26 PM CDT
Astronomical Twilight 4:48 AM CDT 10:04 PM CDT
Moon 3:23 AM CDT (5/4) 3:26 PM CDT (5/4)
Length of Visible Light 14h 51m
Length of Day
13h 54m
Waning Crescent, 27% of the Moon is Illuminated
May 4
Waning Crescent
May 9
New
May 17
First Quarter
May 24
Full
May 31
Last Quarter

Hourly Weather History & Observations

Time (CDT) Temp. Windchill Dew Point Humidity Pressure Visibility Wind Dir Wind Speed Gust Speed Precip Events Conditions
12:15 AM 41.0 °F 35.8 °F 28.4 °F 61% 30.01 in 10.0 mi NW 8.1 mph - N/A   Partly Cloudy
12:35 AM 41.0 °F 35.2 °F 28.4 °F 61% 30.00 in 10.0 mi WNW 9.2 mph - N/A   Scattered Clouds
12:55 AM 41.0 °F 35.8 °F 28.4 °F 61% 30.00 in 10.0 mi NW 8.1 mph - N/A   Partly Cloudy
1:15 AM 41.0 °F 35.8 °F 28.4 °F 61% 29.99 in 10.0 mi NNW 8.1 mph - N/A   Scattered Clouds
1:35 AM 41.0 °F 36.4 °F 28.4 °F 61% 29.99 in 10.0 mi NNW 6.9 mph - N/A   Mostly Cloudy
1:55 AM 41.0 °F 35.8 °F 28.4 °F 61% 29.98 in 10.0 mi NNW 8.1 mph - N/A   Partly Cloudy
2:15 AM 41.0 °F 34.7 °F 28.4 °F 61% 29.97 in 10.0 mi NW 10.4 mph - N/A   Mostly Cloudy
2:35 AM 41.0 °F 35.2 °F 28.4 °F 61% 29.96 in 10.0 mi NW 9.2 mph - N/A   Overcast
2:55 AM 41.0 °F 34.7 °F 28.4 °F 61% 29.96 in 10.0 mi NW 10.4 mph - N/A   Overcast
3:15 AM 41.0 °F 33.5 °F 28.4 °F 61% 29.95 in 10.0 mi NW 13.8 mph 19.6 mph N/A   Overcast
3:35 AM 41.0 °F 33.1 °F 28.4 °F 61% 29.94 in 10.0 mi NW 15.0 mph - N/A   Overcast
3:55 AM 41.0 °F 32.8 °F 28.4 °F 61% 29.93 in 10.0 mi NW 16.1 mph - N/A   Overcast
4:15 AM 41.0 °F 33.1 °F 28.4 °F 61% 29.94 in 10.0 mi NW 15.0 mph 20.7 mph N/A   Overcast
4:35 AM 41.0 °F 33.1 °F 28.4 °F 61% 29.93 in 10.0 mi NW 15.0 mph - N/A   Overcast
4:55 AM 42.8 °F 34.5 °F 26.6 °F 53% 29.93 in 10.0 mi NNW 18.4 mph 24.2 mph N/A   Overcast
5:15 AM 42.8 °F 34.8 °F 26.6 °F 53% 29.93 in 10.0 mi NNW 17.3 mph - N/A   Overcast
5:35 AM 42.8 °F 35.1 °F 26.6 °F 53% 29.93 in 10.0 mi NNW 16.1 mph 25.3 mph N/A   Overcast
5:55 AM 41.0 °F 33.1 °F 26.6 °F 57% 29.93 in 10.0 mi NNW 15.0 mph 20.7 mph N/A   Overcast
6:15 AM 41.0 °F 32.2 °F 26.6 °F 57% 29.93 in 10.0 mi NNW 18.4 mph 25.3 mph N/A   Overcast
6:35 AM 41.0 °F 31.9 °F 26.6 °F 57% 29.93 in 10.0 mi NNW 19.6 mph 28.8 mph N/A   Overcast
6:55 AM 41.0 °F 31.4 °F 26.6 °F 57% 29.93 in 10.0 mi North 21.9 mph 27.6 mph N/A   Overcast
7:15 AM 39.2 °F 27.6 °F 26.6 °F 61% 29.93 in 10.0 mi NNW 28.8 mph 34.5 mph N/A   Overcast
7:35 AM 39.2 °F 28.7 °F 26.6 °F 61% 29.93 in 10.0 mi NNW 23.0 mph 28.8 mph N/A   Overcast
7:55 AM 39.2 °F 29.8 °F 26.6 °F 61% 29.94 in 10.0 mi NNW 18.4 mph 26.5 mph N/A   Overcast
8:15 AM 39.2 °F 28.5 °F 28.4 °F 65% 29.94 in 10.0 mi North 24.2 mph 31.1 mph N/A   Overcast
8:35 AM 39.2 °F 28.0 °F 28.4 °F 65% 29.93 in 10.0 mi North 26.5 mph 33.4 mph N/A   Overcast
8:55 AM 39.2 °F 27.8 °F 26.6 °F 61% 29.95 in 10.0 mi North 27.6 mph 35.7 mph N/A   Overcast
9:15 AM 39.2 °F 29.8 °F 28.4 °F 65% 29.95 in 10.0 mi North 18.4 mph 32.2 mph N/A   Overcast
9:35 AM 39.2 °F 27.6 °F 28.4 °F 65% 29.95 in 10.0 mi North 28.8 mph 35.7 mph N/A   Overcast
9:55 AM 39.2 °F 28.0 °F 30.2 °F 70% 29.96 in 10.0 mi North 26.5 mph 33.4 mph N/A   Overcast
10:15 AM 39.2 °F 28.5 °F 30.2 °F 70% 29.96 in 9.0 mi North 24.2 mph 29.9 mph N/A   Overcast
10:35 AM 39.2 °F 28.5 °F 32.0 °F 75% 29.97 in 10.0 mi North 24.2 mph 31.1 mph N/A   Overcast
10:55 AM 39.2 °F 29.6 °F 32.0 °F 75% 29.98 in 8.0 mi North 19.6 mph 27.6 mph N/A   Overcast
11:15 AM 39.2 °F 29.3 °F 32.0 °F 75% 29.99 in 10.0 mi North 20.7 mph 27.6 mph N/A   Overcast
11:35 AM 39.2 °F 28.0 °F 33.8 °F 81% 29.99 in 8.0 mi North 26.5 mph 33.4 mph N/A   Overcast
11:55 AM 39.2 °F 29.0 °F 33.8 °F 81% 30.00 in 9.0 mi North 21.9 mph 28.8 mph N/A   Overcast
12:15 PM 39.2 °F 29.0 °F 33.8 °F 81% 30.00 in 10.0 mi NNW 21.9 mph 25.3 mph N/A   Overcast
12:35 PM 39.2 °F 29.6 °F 33.8 °F 81% 30.00 in 10.0 mi NNW 19.6 mph 26.5 mph N/A   Overcast
12:55 PM 39.2 °F 29.3 °F 33.8 °F 81% 30.00 in 10.0 mi North 20.7 mph 28.8 mph N/A   Overcast
1:15 PM 39.2 °F 28.7 °F 33.8 °F 81% 30.00 in 10.0 mi North 23.0 mph 32.2 mph N/A   Overcast
1:35 PM 41.0 °F 31.4 °F 33.8 °F 76% 30.00 in 10.0 mi North 21.9 mph 29.9 mph N/A   Overcast
1:55 PM 41.0 °F 31.4 °F 33.8 °F 76% 30.00 in 10.0 mi North 21.9 mph 29.9 mph N/A   Overcast
2:15 PM 41.0 °F 31.1 °F 33.8 °F 76% 30.00 in 10.0 mi North 23.0 mph 31.1 mph N/A   Overcast
2:35 PM 42.8 °F 33.8 °F 35.6 °F 76% 30.01 in 10.0 mi North 21.9 mph 27.6 mph N/A   Overcast
2:55 PM 42.8 °F 34.0 °F 33.8 °F 70% 30.00 in 10.0 mi NNW 20.7 mph 25.3 mph N/A   Overcast
3:15 PM 42.8 °F 33.5 °F 35.6 °F 76% 30.00 in 10.0 mi North 23.0 mph 29.9 mph N/A   Overcast
3:35 PM 44.6 °F 36.6 °F 35.6 °F 71% 30.00 in 10.0 mi North 19.6 mph 29.9 mph N/A   Overcast
3:55 PM 44.6 °F 36.1 °F 35.6 °F 71% 30.00 in 10.0 mi North 21.9 mph 31.1 mph N/A   Overcast
4:15 PM 44.6 °F 36.1 °F 35.6 °F 71% 30.00 in 10.0 mi North 21.9 mph 32.2 mph N/A   Overcast
4:35 PM 44.6 °F 36.1 °F 35.6 °F 71% 30.00 in 10.0 mi North 21.9 mph 27.6 mph N/A   Overcast
4:55 PM 44.6 °F 35.9 °F 35.6 °F 71% 30.01 in 10.0 mi North 23.0 mph 28.8 mph N/A   Overcast
5:15 PM 44.6 °F 36.9 °F 35.6 °F 71% 30.02 in 10.0 mi North 18.4 mph 28.8 mph N/A   Overcast
5:35 PM 44.6 °F 36.4 °F 35.6 °F 71% 30.02 in 10.0 mi North 20.7 mph 28.8 mph N/A   Overcast
5:55 PM 44.6 °F 37.2 °F 35.6 °F 71% 30.03 in 10.0 mi North 17.3 mph 26.5 mph N/A   Overcast
6:15 PM 44.6 °F 36.6 °F 35.6 °F 71% 30.03 in 10.0 mi North 19.6 mph 28.8 mph N/A   Overcast
6:35 PM 42.8 °F 34.8 °F 35.6 °F 76% 30.04 in 10.0 mi North 17.3 mph - N/A   Overcast
6:55 PM 42.8 °F 34.8 °F 35.6 °F 76% 30.04 in 10.0 mi North 17.3 mph - N/A   Overcast
7:15 PM 42.8 °F 34.3 °F 35.6 °F 76% 30.05 in 10.0 mi North 19.6 mph 23.0 mph N/A   Overcast
7:35 PM 42.8 °F 34.8 °F 35.6 °F 76% 30.05 in 10.0 mi NNE 17.3 mph 24.2 mph N/A   Overcast
7:55 PM 42.8 °F 35.1 °F 35.6 °F 76% 30.06 in 10.0 mi NNE 16.1 mph - N/A   Overcast
8:15 PM 42.8 °F 34.8 °F 35.6 °F 76% 30.07 in 10.0 mi NNE 17.3 mph 21.9 mph N/A   Overcast
8:35 PM 42.8 °F 36.6 °F 35.6 °F 76% 30.07 in 9.0 mi North 11.5 mph - N/A   Overcast
8:55 PM 42.8 °F 35.4 °F 37.4 °F 81% 30.08 in 10.0 mi NNE 15.0 mph - N/A   Overcast
9:15 PM 42.8 °F 34.8 °F 37.4 °F 81% 30.08 in 10.0 mi North 17.3 mph - N/A   Overcast
9:35 PM 42.8 °F 35.1 °F 37.4 °F 81% 30.09 in 10.0 mi North 16.1 mph - N/A   Overcast
9:55 PM 42.8 °F 34.8 °F 37.4 °F 81% 30.10 in 10.0 mi North 17.3 mph - N/A   Overcast
10:15 PM 42.8 °F 35.8 °F 35.6 °F 76% 30.11 in 10.0 mi North 13.8 mph 19.6 mph N/A   Overcast
10:35 PM 41.0 °F 33.9 °F 35.6 °F 81% 30.11 in 10.0 mi North 12.7 mph - N/A   Overcast
10:55 PM 41.0 °F 33.9 °F 35.6 °F 81% 30.10 in 10.0 mi North 12.7 mph 19.6 mph N/A   Overcast
11:15 PM 42.8 °F 36.6 °F 35.6 °F 76% 30.11 in 10.0 mi North 11.5 mph - N/A   Overcast
11:35 PM 42.8 °F 37.0 °F 35.6 °F 76% 30.11 in 10.0 mi North 10.4 mph - N/A   Overcast
11:55 PM 42.8 °F 36.2 °F 35.6 °F 76% 30.11 in 10.0 mi NNW 12.7 mph - N/A   Overcast